Time;durP1;ratioP1;P1;durP2;ratioP2;P2;SDS_P1;SDS_P2;PMS_P1;PMS_P2;Temp;Humidity;BMP_temperature;BMP_pressure;BME280_temperature;BME280_humidity;BME280_pressure;Samples;Min_cycle;Max_cycle;Signal;HPM_P1;HPM_P2
2021/11/17 02:26:33;;;;;;;31.53;14.87;;;8.10;99.90;;;;;;5041941;28;20527;-50
2021/11/17 02:29:24;;;;;;;26.50;12.73;;;8.10;99.90;;;;;;5041749;28;20484;-47
2021/11/17 02:32:16;;;;;;;28.67;12.97;;;8.10;99.90;;;;;;5037688;28;20565;-46
2021/11/17 02:35:23;;;;;;;31.17;13.60;;;8.10;99.90;;;;;;5043177;28;20430;-47
2021/11/17 02:38:02;;;;;;;24.50;15.33;;;8.20;99.90;;;;;;5041573;28;20674;-49
2021/11/17 02:40:39;;;;;;;25.80;12.60;;;8.40;99.90;;;;;;5043685;28;20421;-51
2021/11/17 02:43:23;;;;;;;26.37;14.10;;;8.40;99.90;;;;;;5042694;28;20453;-50
2021/11/17 02:46:01;;;;;;;32.90;14.80;;;8.30;99.90;;;;;;5044561;28;20438;-48
2021/11/17 02:48:32;;;;;;;30.77;14.27;;;8.20;99.90;;;;;;5042992;28;20507;-49
2021/11/17 02:51:07;;;;;;;25.90;14.33;;;8.30;99.90;;;;;;5042255;28;21017;-52
2021/11/17 02:53:50;;;;;;;29.70;13.57;;;8.30;99.90;;;;;;5041262;28;20465;-52
2021/11/17 02:56:43;;;;;;;27.10;13.40;;;8.20;99.90;;;;;;5042345;28;20438;-52
2021/11/17 02:59:28;;;;;;;27.80;13.70;;;8.20;99.90;;;;;;5041734;28;20487;-49
2021/11/17 03:02:15;;;;;;;24.23;14.43;;;8.20;99.90;;;;;;5043543;28;20449;-51
2021/11/17 03:04:46;;;;;;;25.13;14.37;;;8.20;99.90;;;;;;5043819;28;20449;-52
2021/11/17 03:07:34;;;;;;;26.17;14.03;;;8.20;99.90;;;;;;5043329;28;20434;-51
2021/11/17 03:10:34;;;;;;;26.60;13.73;;;8.20;99.90;;;;;;5041919;28;20452;-52
2021/11/17 03:13:17;;;;;;;28.10;14.00;;;8.10;99.90;;;;;;5043843;28;20469;-52
2021/11/17 03:15:49;;;;;;;26.30;13.43;;;8.10;99.90;;;;;;5044947;28;20864;-53
2021/11/17 03:18:50;;;;;;;28.40;15.33;;;8.20;99.90;;;;;;5043801;28;20466;-52
2021/11/17 03:21:28;;;;;;;25.97;13.50;;;8.20;99.90;;;;;;5043686;28;20503;-51
2021/11/17 03:23:59;;;;;;;29.13;15.27;;;8.20;99.90;;;;;;5044449;28;20434;-52
2021/11/17 03:26:31;;;;;;;26.97;13.23;;;8.30;99.90;;;;;;5041123;28;20492;-48
2021/11/17 03:29:21;;;;;;;23.97;12.83;;;8.40;99.90;;;;;;5042720;28;20445;-52
2021/11/17 03:32:07;;;;;;;26.20;12.50;;;8.30;99.90;;;;;;5042763;28;20476;-50
2021/11/17 03:34:51;;;;;;;20.87;11.20;;;8.20;99.90;;;;;;5042503;28;20517;-53
2021/11/17 03:37:47;;;;;;;21.30;12.90;;;8.10;99.90;;;;;;5039468;28;20446;-50
2021/11/17 03:40:24;;;;;;;23.73;12.13;;;8.30;99.90;;;;;;5040268;28;20491;-51
2021/11/17 03:43:10;;;;;;;23.80;11.07;;;8.30;99.90;;;;;;5039518;28;20543;-51
2021/11/17 03:45:35;;;;;;;25.67;15.57;;;8.30;99.90;;;;;;5043542;28;20469;-52
2021/11/17 03:48:10;;;;;;;27.30;13.47;;;8.40;99.90;;;;;;5042904;28;20450;-52
2021/11/17 03:50:57;;;;;;;25.30;12.47;;;8.20;99.90;;;;;;5041783;28;20183;-51
2021/11/17 03:53:22;;;;;;;23.93;14.13;;;8.30;99.90;;;;;;5043272;28;20484;-52
2021/11/17 03:56:09;;;;;;;26.87;13.23;;;8.50;99.90;;;;;;5040383;28;20442;-52
2021/11/17 03:59:06;;;;;;;25.57;12.30;;;8.40;99.90;;;;;;5040944;28;20688;-47
2021/11/17 04:02:19;;;;;;;23.70;12.00;;;8.20;99.90;;;;;;5043473;28;20476;-47
2021/11/17 04:04:55;;;;;;;22.60;12.23;;;8.20;99.90;;;;;;5034762;28;20446;-50
2021/11/17 04:07:26;;;;;;;24.90;12.80;;;8.10;99.90;;;;;;5040051;28;20429;-50
2021/11/17 04:09:58;;;;;;;22.20;11.97;;;8.00;99.90;;;;;;5043138;28;20508;-52
2021/11/17 04:12:29;;;;;;;24.77;11.73;;;8.00;99.90;;;;;;5040420;28;20901;-48
2021/11/17 04:15:30;;;;;;;22.13;11.97;;;8.20;99.90;;;;;;5040586;28;20445;-50
2021/11/17 04:18:28;;;;;;;22.60;12.80;;;8.30;99.90;;;;;;5022130;28;20430;-49
2021/11/17 04:20:59;;;;;;;24.77;11.50;;;8.20;99.90;;;;;;5002139;28;20446;-49
2021/11/17 04:23:28;;;;;;;20.30;12.07;;;8.30;99.90;;;;;;5041299;28;20544;-47
2021/11/17 04:26:19;;;;;;;20.50;10.23;;;8.20;99.90;;;;;;5041454;28;20901;-47
2021/11/17 04:29:13;;;;;;;24.57;12.57;;;8.30;99.90;;;;;;5040947;28;20437;-48
2021/11/17 04:31:44;;;;;;;24.00;10.63;;;8.20;99.90;;;;;;5039454;28;20495;-49
2021/11/17 04:34:22;;;;;;;19.70;10.90;;;8.20;99.90;;;;;;5042433;28;20431;-47
2021/11/17 04:37:17;;;;;;;16.60;9.53;;;8.20;99.90;;;;;;5041058;28;20429;-49
2021/11/17 04:40:10;;;;;;;24.97;11.43;;;8.20;99.90;;;;;;5040430;28;20454;-50
2021/11/17 04:42:41;;;;;;;22.57;10.50;;;8.20;99.90;;;;;;5041377;28;20480;-49
2021/11/17 04:45:19;;;;;;;23.37;11.60;;;8.10;99.90;;;;;;5040706;28;20500;-49
2021/11/17 04:48:00;;;;;;;19.53;10.83;;;8.20;99.90;;;;;;5040449;28;20470;-50
2021/11/17 04:50:52;;;;;;;23.40;10.57;;;8.10;99.90;;;;;;5038082;28;21281;-50
2021/11/17 04:53:26;;;;;;;23.27;10.00;;;8.10;99.90;;;;;;5038771;28;20473;-48
2021/11/17 04:56:42;;;;;;;23.27;10.00;;;8.10;99.90;;;;;;5040794;28;20797;-50
2021/11/17 04:59:41;;;;;;;19.00;10.93;;;8.10;99.90;;;;;;5036853;28;20446;-51
2021/11/17 05:02:32;;;;;;;20.50;9.77;;;8.00;99.90;;;;;;5042699;28;20456;-51
2021/11/17 05:05:10;;;;;;;21.00;10.80;;;8.00;99.90;;;;;;5040635;28;20492;-51
2021/11/17 05:07:57;;;;;;;19.17;10.47;;;8.00;99.90;;;;;;5039523;28;20463;-53
2021/11/17 05:10:40;;;;;;;20.97;9.23;;;8.00;99.90;;;;;;5041844;28;20438;-48
2021/11/17 05:13:14;;;;;;;19.60;9.77;;;8.10;99.90;;;;;;5039529;28;20574;-50
2021/11/17 05:15:52;;;;;;;21.37;10.57;;;8.20;99.90;;;;;;5041647;28;20519;-48
2021/11/17 05:18:41;;;;;;;17.70;10.13;;;8.20;99.90;;;;;;5041390;28;20460;-47
2021/11/17 05:21:51;;;;;;;18.80;10.40;;;8.20;99.90;;;;;;5041465;28;20966;-51
2021/11/17 05:24:28;;;;;;;19.40;10.57;;;8.20;99.90;;;;;;5042856;28;20430;-51
2021/11/17 05:27:00;;;;;;;21.37;10.07;;;8.20;99.90;;;;;;5040756;28;20430;-51
2021/11/17 05:29:50;;;;;;;19.23;9.40;;;8.10;99.90;;;;;;5038367;28;20442;-50
2021/11/17 05:32:57;;;;;;;18.33;11.10;;;8.20;99.90;;;;;;5040653;28;20484;-54
2021/11/17 05:35:57;;;;;;;20.07;11.00;;;8.10;99.90;;;;;;5040904;28;20438;-50
2021/11/17 05:38:32;;;;;;;22.80;11.10;;;8.00;99.90;;;;;;5038318;28;20442;-51
2021/11/17 05:41:09;;;;;;;21.10;9.70;;;7.90;99.90;;;;;;5037829;28;20463;-52
2021/11/17 05:44:05;;;;;;;18.57;8.93;;;7.90;99.90;;;;;;5041308;28;21060;-50
2021/11/17 05:46:49;;;;;;;21.27;10.60;;;7.90;99.90;;;;;;5038311;28;20521;-51
2021/11/17 05:49:32;;;;;;;19.60;11.37;;;7.80;99.90;;;;;;5037667;28;20627;-51
2021/11/17 05:52:17;;;;;;;24.43;10.40;;;7.80;99.90;;;;;;5040373;28;20497;-53
2021/11/17 05:55:06;;;;;;;20.00;10.40;;;7.70;99.90;;;;;;5038446;28;20462;-53
2021/11/17 05:57:34;;;;;;;17.47;9.43;;;7.50;99.90;;;;;;5040103;28;20509;-51
2021/11/17 06:00:24;;;;;;;20.67;9.73;;;7.50;99.90;;;;;;5042223;28;20764;-53
2021/11/17 06:02:55;;;;;;;17.37;9.00;;;7.50;99.90;;;;;;5039958;28;20493;-52
2021/11/17 06:05:21;;;;;;;16.10;10.00;;;7.50;99.90;;;;;;5039551;28;20445;-51
2021/11/17 06:07:46;;;;;;;18.47;9.17;;;7.60;99.90;;;;;;5041814;28;20434;-49
2021/11/17 06:10:18;;;;;;;15.87;7.93;;;7.60;99.90;;;;;;5040971;28;20207;-52
2021/11/17 06:12:44;;;;;;;18.13;8.70;;;7.60;99.90;;;;;;5040624;28;20219;-51
2021/11/17 06:15:13;;;;;;;15.53;9.70;;;7.60;99.90;;;;;;5041623;28;20995;-52
2021/11/17 06:17:40;;;;;;;20.07;9.43;;;7.60;99.90;;;;;;5041111;28;20198;-52
2021/11/17 06:20:10;;;;;;;16.67;9.30;;;7.60;99.90;;;;;;5041255;28;20802;-48
2021/11/17 06:22:36;;;;;;;22.40;8.93;;;7.60;99.90;;;;;;5040975;28;20442;-50
2021/11/17 06:25:08;;;;;;;19.30;8.50;;;7.80;99.90;;;;;;5042458;28;20548;-47
2021/11/17 06:27:37;;;;;;;15.97;9.07;;;7.90;99.90;;;;;;5038137;28;20445;-46
2021/11/17 06:30:05;;;;;;;18.27;8.97;;;7.90;99.90;;;;;;5038724;28;20923;-47
2021/11/17 06:32:31;;;;;;;20.07;9.53;;;7.80;99.90;;;;;;5041198;28;20533;-49
2021/11/17 06:35:00;;;;;;;17.33;8.93;;;7.80;99.90;;;;;;5038971;28;20510;-50
2021/11/17 06:37:27;;;;;;;23.80;9.90;;;7.80;99.90;;;;;;5038886;28;20195;-52
2021/11/17 06:39:58;;;;;;;18.43;9.80;;;7.70;99.90;;;;;;5043433;28;20458;-48
2021/11/17 06:42:30;;;;;;;17.93;9.87;;;7.80;99.90;;;;;;5039446;28;20474;-47
2021/11/17 06:44:57;;;;;;;14.57;9.07;;;7.80;99.90;;;;;;5041688;28;20980;-47
2021/11/17 06:47:23;;;;;;;18.83;11.20;;;7.80;99.90;;;;;;5041853;28;21069;-47
2021/11/17 06:49:49;;;;;;;15.23;8.73;;;7.90;99.90;;;;;;5041393;28;20492;-47
2021/11/17 06:52:14;;;;;;;14.23;8.20;;;7.90;99.90;;;;;;5042873;28;20468;-46
2021/11/17 06:54:40;;;;;;;15.20;7.97;;;7.70;99.90;;;;;;5041208;28;20437;-48
2021/11/17 06:57:06;;;;;;;15.43;8.27;;;7.70;99.90;;;;;;5040759;28;20180;-46
2021/11/17 06:59:31;;;;;;;15.63;7.77;;;7.70;99.90;;;;;;5041950;28;20217;-47
2021/11/17 07:02:04;;;;;;;19.30;8.73;;;7.60;99.90;;;;;;5041085;28;20273;-47
2021/11/17 07:04:30;;;;;;;19.40;8.77;;;7.50;99.90;;;;;;5043954;28;20271;-47
2021/11/17 07:06:56;;;;;;;15.80;8.80;;;7.50;99.90;;;;;;5040064;28;20525;-48
2021/11/17 07:09:21;;;;;;;14.43;9.40;;;7.50;99.90;;;;;;5041599;28;20199;-46
2021/11/17 07:11:47;;;;;;;14.00;8.70;;;7.50;99.90;;;;;;5043622;28;20211;-47
2021/11/17 07:14:13;;;;;;;15.23;8.10;;;7.60;99.90;;;;;;5041722;28;20648;-50
2021/11/17 07:16:40;;;;;;;14.10;7.27;;;7.60;99.90;;;;;;5043979;28;20561;-48
2021/11/17 07:19:09;;;;;;;17.30;9.87;;;7.50;99.90;;;;;;5036578;28;20434;-50
2021/11/17 07:21:34;;;;;;;16.13;9.40;;;7.40;99.90;;;;;;5043525;28;20519;-51
2021/11/17 07:24:01;;;;;;;16.43;9.70;;;7.40;99.90;;;;;;5039496;28;20707;-49
2021/11/17 07:26:27;;;;;;;17.60;7.90;;;7.50;99.90;;;;;;5036255;28;20195;-51
2021/11/17 07:28:53;;;;;;;14.20;8.77;;;7.60;99.90;;;;;;5038657;28;20437;-48
2021/11/17 07:31:18;;;;;;;15.30;8.60;;;7.50;99.90;;;;;;5036314;28;20302;-49
2021/11/17 07:33:44;;;;;;;14.27;8.07;;;7.60;99.90;;;;;;5042166;28;20465;-50
2021/11/17 07:36:10;;;;;;;13.60;9.50;;;7.50;99.90;;;;;;5039707;28;20632;-48
2021/11/17 07:38:36;;;;;;;14.63;8.40;;;7.60;99.90;;;;;;5040250;28;20438;-50
2021/11/17 07:41:02;;;;;;;11.67;7.80;;;7.60;99.90;;;;;;5041656;28;20601;-49
2021/11/17 07:43:28;;;;;;;13.07;8.10;;;7.70;99.90;;;;;;5040221;28;20474;-49
2021/11/17 07:45:55;;;;;;;10.60;7.07;;;7.80;99.90;;;;;;5045177;28;20648;-51
2021/11/17 07:48:25;;;;;;;13.40;7.50;;;7.70;99.90;;;;;;5040595;28;20199;-52
2021/11/17 07:50:51;;;;;;;11.00;7.20;;;7.50;99.90;;;;;;5041157;28;20507;-52
2021/11/17 07:53:20;;;;;;;12.40;8.30;;;7.50;99.90;;;;;;5042941;28;20466;-52
2021/11/17 07:55:49;;;;;;;16.07;7.77;;;7.50;99.90;;;;;;5041008;28;20426;-51
2021/11/17 07:58:15;;;;;;;11.00;6.23;;;7.50;99.90;;;;;;5043080;28;20445;-53
2021/11/17 08:00:45;;;;;;;10.80;6.80;;;7.40;99.90;;;;;;5039542;28;20462;-52
2021/11/17 08:03:12;;;;;;;10.17;6.23;;;7.50;99.90;;;;;;5044326;28;20990;-50
2021/11/17 08:05:39;;;;;;;11.03;6.37;;;7.40;99.90;;;;;;5039439;28;20449;-52
2021/11/17 08:08:05;;;;;;;10.70;6.60;;;7.40;99.90;;;;;;5036474;28;20557;-52
2021/11/17 08:10:37;;;;;;;11.03;7.17;;;7.40;99.90;;;;;;5039765;28;20569;-54
2021/11/17 08:13:02;;;;;;;8.70;6.07;;;7.40;99.90;;;;;;5039999;28;20472;-51
2021/11/17 08:15:30;;;;;;;7.70;5.70;;;7.40;99.90;;;;;;5041569;28;20569;-51
2021/11/17 08:17:55;;;;;;;12.37;5.83;;;7.40;99.90;;;;;;5037768;28;20886;-51
2021/11/17 08:20:22;;;;;;;9.20;5.70;;;7.40;99.90;;;;;;5041045;28;20429;-49
2021/11/17 08:22:51;;;;;;;10.80;6.10;;;7.30;99.90;;;;;;5041636;28;20490;-49
2021/11/17 08:25:20;;;;;;;8.90;5.83;;;7.40;99.90;;;;;;5041077;28;20460;-50
2021/11/17 08:27:46;;;;;;;7.23;5.53;;;7.50;99.90;;;;;;5041037;28;20470;-51
2021/11/17 08:30:13;;;;;;;6.93;4.73;;;7.60;99.90;;;;;;5042359;28;20939;-49
2021/11/17 08:32:40;;;;;;;9.40;4.60;;;7.60;99.90;;;;;;5051760;22;20584;-52
2021/11/17 08:35:08;;;;;;;9.00;6.23;;;7.60;99.90;;;;;;5030863;28;21013;-54
2021/11/17 08:37:35;;;;;;;9.00;4.93;;;7.40;99.90;;;;;;5035264;28;20449;-56
2021/11/17 08:40:02;;;;;;;7.60;5.10;;;7.50;99.90;;;;;;5033523;28;20458;-51
2021/11/17 08:42:28;;;;;;;7.27;5.17;;;7.40;99.90;;;;;;5045895;28;20905;-53
2021/11/17 08:44:54;;;;;;;6.03;4.03;;;7.40;99.90;;;;;;5052745;28;20437;-53
2021/11/17 08:47:20;;;;;;;5.70;4.10;;;7.50;99.90;;;;;;5050047;28;20191;-51
2021/11/17 08:49:46;;;;;;;6.50;4.80;;;7.50;99.90;;;;;;5054335;28;20385;-49
2021/11/17 08:52:12;;;;;;;9.43;4.83;;;7.40;99.90;;;;;;5050304;28;20501;-51
2021/11/17 08:54:39;;;;;;;5.37;4.17;;;7.50;99.90;;;;;;5050925;28;20453;-52
2021/11/17 08:57:06;;;;;;;5.03;3.87;;;7.50;99.90;;;;;;5052263;28;20430;-54
2021/11/17 08:59:32;;;;;;;4.60;3.90;;;7.50;99.90;;;;;;5053003;28;20430;-56
2021/11/17 09:02:03;;;;;;;6.13;4.20;;;7.50;99.90;;;;;;5058681;28;20464;-51
2021/11/17 09:04:29;;;;;;;5.10;3.63;;;7.70;99.90;;;;;;5052241;28;20816;-56
2021/11/17 09:06:56;;;;;;;6.50;4.13;;;7.70;99.90;;;;;;5051755;28;20469;-53
2021/11/17 09:09:21;;;;;;;5.93;4.10;;;7.70;99.90;;;;;;5054120;28;20264;-56
2021/11/17 09:11:47;;;;;;;5.23;4.10;;;7.80;99.90;;;;;;5051757;28;20504;-55
2021/11/17 09:14:14;;;;;;;6.30;3.87;;;7.80;99.90;;;;;;5051886;28;20193;-52
2021/11/17 09:16:41;;;;;;;6.40;4.10;;;7.80;99.90;;;;;;5035426;28;20192;-50
2021/11/17 09:19:08;;;;;;;5.47;4.90;;;7.70;99.90;;;;;;5037413;28;20446;-51
2021/11/17 09:21:36;;;;;;;7.50;4.60;;;7.70;99.90;;;;;;5053409;28;20450;-52
2021/11/17 09:24:04;;;;;;;5.50;3.83;;;7.70;99.90;;;;;;5053220;28;20517;-53
2021/11/17 09:26:31;;;;;;;7.03;3.63;;;7.70;99.90;;;;;;5053540;28;20525;-53
2021/11/17 09:28:57;;;;;;;6.43;4.63;;;7.70;99.90;;;;;;5052005;28;20445;-51
2021/11/17 09:31:25;;;;;;;6.53;3.77;;;7.60;99.90;;;;;;5054118;28;20469;-52
2021/11/17 09:33:50;;;;;;;7.33;4.27;;;7.70;99.90;;;;;;5037037;28;20967;-54
2021/11/17 09:36:18;;;;;;;5.93;4.40;;;7.70;99.90;;;;;;5050673;28;20461;-53
2021/11/17 09:38:48;;;;;;;7.83;3.47;;;7.70;99.90;;;;;;5054462;28;20187;-53
2021/11/17 09:41:16;;;;;;;5.53;3.80;;;7.80;99.90;;;;;;5054521;28;20539;-53
2021/11/17 09:43:45;;;;;;;6.03;3.40;;;7.80;99.90;;;;;;5052158;28;21064;-55
2021/11/17 09:46:13;;;;;;;7.07;3.17;;;7.70;99.90;;;;;;5057688;28;21218;-53
2021/11/17 09:48:43;;;;;;;4.13;2.43;;;7.70;99.90;;;;;;5052763;28;20495;-54
2021/11/17 09:51:19;;;;;;;3.10;2.50;;;7.70;99.90;;;;;;5053446;28;20457;-54
2021/11/17 09:54:04;;;;;;;2.07;1.87;;;7.80;99.90;;;;;;5054681;28;20966;-53
2021/11/17 09:56:41;;;;;;;2.53;1.80;;;7.90;99.90;;;;;;5053828;28;20982;-53
2021/11/17 09:59:19;;;;;;;2.57;2.10;;;7.80;99.90;;;;;;5055446;28;20544;-53
2021/11/17 10:01:59;;;;;;;2.60;2.00;;;7.80;99.90;;;;;;5053512;28;20465;-52
2021/11/17 10:04:36;;;;;;;2.40;1.90;;;7.80;99.90;;;;;;5052677;28;20789;-52
2021/11/17 10:15:15;;;;;;;3.03;2.53;;;8.10;99.90;;;;;;5053449;28;20448;-50
2021/11/17 10:17:53;;;;;;;4.20;2.80;;;8.30;99.90;;;;;;5056688;28;20441;-53
2021/11/17 10:20:58;;;;;;;6.20;2.63;;;8.40;99.90;;;;;;5040496;28;20917;-54
2021/11/17 10:23:51;;;;;;;3.93;3.30;;;8.30;99.90;;;;;;5025922;28;20481;-53
2021/11/17 10:26:17;;;;;;;4.00;3.00;;;8.20;99.90;;;;;;5054162;28;20450;-53
2021/11/17 10:29:00;;;;;;;3.87;2.77;;;8.20;99.90;;;;;;5056812;28;20433;-53
2021/11/17 10:31:32;;;;;;;4.50;3.00;;;8.20;99.90;;;;;;5057759;28;20781;-51
2021/11/17 10:34:28;;;;;;;7.03;4.23;;;8.20;99.90;;;;;;5056433;28;20465;-54
2021/11/17 10:37:15;;;;;;;4.07;2.80;;;8.40;99.90;;;;;;5045981;28;20449;-52
2021/11/17 10:39:45;;;;;;;4.10;3.07;;;8.40;99.90;;;;;;5054747;28;20438;-53
2021/11/17 10:42:14;;;;;;;4.53;3.90;;;8.40;99.90;;;;;;5054997;28;20461;-54
2021/11/17 10:44:42;;;;;;;6.10;3.07;;;8.20;99.90;;;;;;5058394;28;20438;-52
2021/11/17 10:47:28;;;;;;;6.60;3.60;;;8.20;99.90;;;;;;5055044;28;20429;-52
2021/11/17 10:50:21;;;;;;;5.07;3.70;;;8.20;99.90;;;;;;5055007;28;21233;-54
2021/11/17 10:53:14;;;;;;;4.10;3.70;;;8.30;99.90;;;;;;5054777;28;20457;-52
2021/11/17 10:55:48;;;;;;;7.47;3.80;;;8.20;99.90;;;;;;5053712;28;20495;-55
2021/11/17 10:58:20;;;;;;;4.20;3.20;;;8.10;99.90;;;;;;5058720;28;20433;-53
2021/11/17 11:00:53;;;;;;;5.37;3.70;;;8.10;99.90;;;;;;5053165;28;20912;-54
2021/11/17 11:03:22;;;;;;;4.93;3.90;;;8.20;99.90;;;;;;5056349;28;20577;-54
2021/11/17 11:06:02;;;;;;;5.10;3.30;;;8.20;99.90;;;;;;5055460;28;20466;-54
2021/11/17 11:08:38;;;;;;;6.00;3.27;;;8.30;99.90;;;;;;5061058;28;20858;-54
2021/11/17 11:11:05;;;;;;;5.83;3.90;;;8.30;99.90;;;;;;5057671;28;20434;-55
2021/11/17 11:13:50;;;;;;;4.50;3.90;;;8.20;99.90;;;;;;5054570;28;20533;-51
2021/11/17 11:16:41;;;;;;;5.27;3.77;;;8.00;99.90;;;;;;5059124;28;20430;-54
2021/11/17 11:19:10;;;;;;;8.73;4.17;;;8.00;99.90;;;;;;5057314;28;20442;-51
2021/11/17 11:21:41;;;;;;;4.80;3.97;;;7.90;99.90;;;;;;5055697;28;20805;-54
2021/11/17 11:24:10;;;;;;;5.20;3.83;;;7.90;99.90;;;;;;5050283;28;20514;-56
2021/11/17 11:26:58;;;;;;;4.60;4.10;;;7.90;99.90;;;;;;5049805;28;20437;-54
2021/11/17 11:29:33;;;;;;;5.23;4.27;;;7.90;99.90;;;;;;5056249;28;20430;-52
2021/11/17 11:32:01;;;;;;;6.30;4.00;;;7.90;99.90;;;;;;5051361;28;20472;-54
2021/11/17 11:35:07;;;;;;;5.97;4.13;;;8.00;99.90;;;;;;5053998;28;20529;-56
2021/11/17 11:37:32;;;;;;;6.07;3.93;;;7.90;99.90;;;;;;5052301;28;20856;-53
2021/11/17 11:40:31;;;;;;;5.47;4.13;;;8.00;99.90;;;;;;5051726;28;20442;-53
2021/11/17 11:43:20;;;;;;;9.03;3.63;;;8.00;99.90;;;;;;4998043;28;20342;-52
2021/11/17 11:45:49;;;;;;;5.60;4.47;;;8.00;99.90;;;;;;5051486;28;20476;-49
2021/11/17 11:48:24;;;;;;;4.03;3.13;;;8.00;99.90;;;;;;5052544;28;20469;-51
2021/11/17 11:51:03;;;;;;;6.03;3.90;;;8.10;99.90;;;;;;5052002;28;20798;-52
2021/11/17 11:53:57;;;;;;;13.30;4.00;;;8.10;99.90;;;;;;5052723;28;20621;-54
2021/11/17 11:56:57;;;;;;;5.87;3.40;;;8.00;99.90;;;;;;5056629;28;20432;-52
2021/11/17 11:59:28;;;;;;;4.03;3.47;;;7.90;99.90;;;;;;5050652;28;20452;-55
2021/11/17 12:02:12;;;;;;;4.20;3.20;;;8.00;99.90;;;;;;5052758;28;20457;-52
2021/11/17 12:04:47;;;;;;;4.63;3.07;;;7.90;99.90;;;;;;5050759;28;20437;-52
2021/11/17 12:07:32;;;;;;;3.83;3.30;;;7.90;99.90;;;;;;5054047;28;20463;-55
2021/11/17 12:10:07;;;;;;;4.67;3.00;;;7.80;99.90;;;;;;5052012;28;20437;-52
2021/11/17 12:12:37;;;;;;;4.13;3.40;;;7.80;99.90;;;;;;5050850;28;20517;-52
2021/11/17 12:15:18;;;;;;;4.33;3.23;;;7.90;99.90;;;;;;5053438;28;20457;-57
2021/11/17 12:17:44;;;;;;;4.67;3.10;;;8.10;99.90;;;;;;5050869;28;20519;-54
2021/11/17 12:20:39;;;;;;;5.30;3.63;;;8.10;99.90;;;;;;5055074;28;20426;-56
2021/11/17 12:23:22;;;;;;;4.00;3.40;;;8.00;99.90;;;;;;5049799;28;20599;-53
2021/11/17 12:26:07;;;;;;;4.93;3.03;;;8.10;99.90;;;;;;5051350;28;20433;-53
2021/11/17 12:28:40;;;;;;;4.40;3.17;;;8.00;99.90;;;;;;5054068;28;20444;-54
2021/11/17 12:31:11;;;;;;;4.20;3.57;;;8.10;99.90;;;;;;5051769;28;20461;-53
2021/11/17 12:33:36;;;;;;;7.87;4.00;;;8.00;99.90;;;;;;5055197;28;20449;-54
2021/11/17 12:36:23;;;;;;;5.20;3.50;;;8.10;99.90;;;;;;5053418;28;20461;-53
2021/11/17 12:38:51;;;;;;;6.20;3.97;;;8.20;99.90;;;;;;5047773;28;20195;-54
2021/11/17 12:41:20;;;;;;;4.37;3.47;;;8.30;99.90;;;;;;5054778;28;20455;-55
2021/11/17 12:44:00;;;;;;;5.57;4.17;;;8.30;99.90;;;;;;5048811;28;20492;-54
2021/11/17 12:46:34;;;;;;;3.83;3.43;;;8.40;99.90;;;;;;5049704;28;20461;-55
2021/11/17 12:49:21;;;;;;;6.57;3.50;;;8.50;99.90;;;;;;5050395;28;20434;-53
2021/11/17 12:52:19;;;;;;;4.90;4.13;;;8.50;99.90;;;;;;5050575;28;20574;-51
2021/11/17 12:54:55;;;;;;;3.20;2.83;;;8.70;99.90;;;;;;5049371;28;20482;-54
2021/11/17 12:57:28;;;;;;;5.30;2.90;;;10.20;99.90;;;;;;5036779;28;20889;-54
2021/11/17 13:00:03;;;;;;;4.40;3.50;;;12.20;99.90;;;;;;5046774;28;20467;-55
2021/11/17 13:02:34;;;;;;;3.87;3.00;;;13.60;99.90;;;;;;5052434;28;20471;-56
2021/11/17 13:05:26;;;;;;;4.00;3.30;;;13.20;99.90;;;;;;5049488;28;20430;-55
2021/11/17 13:08:04;;;;;;;4.90;3.77;;;12.70;99.90;;;;;;5048005;28;20809;-54
2021/11/17 13:10:40;;;;;;;6.17;3.37;;;12.60;99.90;;;;;;5055548;28;20428;-53
2021/11/17 13:13:26;;;;;;;3.97;3.30;;;12.60;99.90;;;;;;5050736;28;20548;-54
2021/11/17 13:15:54;;;;;;;4.47;3.30;;;12.00;99.90;;;;;;5051463;28;20433;-56
2021/11/17 13:18:29;;;;;;;4.30;3.13;;;11.30;99.90;;;;;;5052652;28;20867;-51
2021/11/17 13:21:29;;;;;;;3.27;2.97;;;10.90;99.90;;;;;;5050965;28;20452;-53
2021/11/17 13:24:04;;;;;;;4.90;4.30;;;10.50;99.90;;;;;;5051671;28;20473;-52
2021/11/17 13:26:42;;;;;;;4.60;3.50;;;10.10;99.90;;;;;;5049831;28;20434;-53
2021/11/17 13:29:16;;;;;;;6.70;3.80;;;9.90;99.90;;;;;;5050160;28;20429;-55
2021/11/17 13:31:44;;;;;;;4.33;3.63;;;9.70;99.90;;;;;;5052697;28;20484;-53
2021/11/17 13:34:27;;;;;;;4.83;3.80;;;9.60;99.90;;;;;;5050067;28;20448;-54
2021/11/17 13:36:54;;;;;;;5.30;4.10;;;9.30;99.90;;;;;;5051656;28;20445;-55
2021/11/17 13:39:22;;;;;;;6.53;4.23;;;9.30;99.90;;;;;;5049435;28;20433;-55
2021/11/17 13:41:51;;;;;;;4.33;3.70;;;9.40;99.90;;;;;;5052641;28;20458;-53
2021/11/17 13:44:22;;;;;;;4.93;3.63;;;9.30;99.90;;;;;;5047614;28;20434;-55
2021/11/17 13:47:08;;;;;;;4.43;3.70;;;9.30;99.90;;;;;;5054437;28;20625;-51
2021/11/17 13:49:34;;;;;;;9.83;4.10;;;9.20;99.90;;;;;;5053086;28;20422;-51
2021/11/17 13:52:01;;;;;;;5.30;4.03;;;9.10;99.90;;;;;;5054513;28;20579;-54
2021/11/17 13:54:27;;;;;;;5.57;4.90;;;9.00;99.90;;;;;;5019567;28;20433;-51
2021/11/17 13:56:53;;;;;;;4.70;3.93;;;9.00;99.90;;;;;;5053788;28;20430;-51
2021/11/17 13:59:19;;;;;;;5.23;4.63;;;8.90;99.90;;;;;;5052271;28;20210;-52
2021/11/17 14:01:45;;;;;;;5.00;4.10;;;8.90;99.90;;;;;;5052659;28;20460;-51
2021/11/17 14:04:11;;;;;;;6.70;4.80;;;8.80;99.90;;;;;;5051412;28;20422;-53
2021/11/17 14:06:37;;;;;;;6.20;4.67;;;8.90;99.90;;;;;;5052153;28;20187;-51
2021/11/17 14:09:04;;;;;;;4.93;4.30;;;9.00;99.90;;;;;;5053737;28;20798;-54
2021/11/17 14:11:33;;;;;;;5.10;4.30;;;9.00;99.90;;;;;;5054700;28;20461;-53
2021/11/17 14:13:59;;;;;;;5.03;4.20;;;9.00;99.90;;;;;;5038424;28;21301;-56
2021/11/17 14:16:25;;;;;;;5.30;4.23;;;8.90;99.90;;;;;;5053287;28;20805;-54
2021/11/17 14:18:51;;;;;;;5.83;4.30;;;9.00;99.90;;;;;;5053156;28;20445;-56
2021/11/17 14:21:17;;;;;;;8.30;4.80;;;9.00;99.90;;;;;;5053231;28;20203;-51
2021/11/17 14:23:43;;;;;;;7.80;5.80;;;8.90;99.90;;;;;;5050551;28;20843;-54
2021/11/17 14:26:12;;;;;;;4.87;4.23;;;8.90;99.90;;;;;;5050599;28;20467;-56
2021/11/17 14:28:42;;;;;;;12.90;5.60;;;9.00;99.90;;;;;;5052618;28;20202;-54
2021/11/17 14:31:15;;;;;;;6.30;4.70;;;8.90;99.90;;;;;;5053279;28;20505;-55
2021/11/17 14:33:44;;;;;;;5.90;5.13;;;8.90;99.90;;;;;;5055389;28;20938;-56
2021/11/17 14:36:12;;;;;;;6.43;4.30;;;9.10;99.90;;;;;;5051369;28;20453;-54
2021/11/17 14:38:39;;;;;;;5.73;4.73;;;9.00;99.90;;;;;;5054071;28;20444;-54
2021/11/17 14:41:06;;;;;;;6.93;5.63;;;9.00;99.90;;;;;;5053048;28;20417;-55
2021/11/17 14:43:32;;;;;;;6.13;5.53;;;8.90;99.90;;;;;;5053277;28;20471;-54
2021/11/17 14:45:57;;;;;;;7.00;5.67;;;8.90;99.90;;;;;;5051292;28;20434;-52
2021/11/17 14:48:24;;;;;;;5.93;4.13;;;8.80;99.90;;;;;;5054184;28;20775;-50
2021/11/17 14:50:55;;;;;;;7.00;4.57;;;8.70;99.90;;;;;;5053972;28;20821;-53
2021/11/17 14:53:21;;;;;;;6.77;5.40;;;8.70;99.90;;;;;;5049788;28;20526;-52
2021/11/17 14:55:47;;;;;;;5.63;4.07;;;8.80;99.90;;;;;;5053271;28;20434;-52
2021/11/17 14:58:13;;;;;;;6.90;4.40;;;8.70;99.90;;;;;;5050068;28;20437;-53
2021/11/17 15:00:49;;;;;;;5.20;4.60;;;8.70;99.90;;;;;;5049389;28;20441;-52
2021/11/17 15:03:15;;;;;;;6.90;4.40;;;8.80;99.90;;;;;;5058216;28;20207;-52
2021/11/17 15:05:41;;;;;;;5.70;5.00;;;8.80;99.90;;;;;;5059289;28;20981;-50
2021/11/17 15:08:06;;;;;;;5.10;4.53;;;8.80;99.90;;;;;;5055348;28;20620;-52
2021/11/17 15:10:32;;;;;;;5.77;4.47;;;8.80;99.90;;;;;;5052977;28;20186;-51
2021/11/17 15:12:58;;;;;;;6.00;5.13;;;8.80;99.90;;;;;;5053982;28;20208;-53
2021/11/17 15:15:35;;;;;;;6.10;5.10;;;8.80;99.90;;;;;;5054029;28;20450;-53
2021/11/17 15:18:01;;;;;;;8.80;5.03;;;8.80;99.90;;;;;;5054056;28;20685;-55
2021/11/17 15:20:27;;;;;;;8.10;5.00;;;8.80;99.90;;;;;;5052542;28;20433;-53
2021/11/17 15:22:53;;;;;;;9.43;5.43;;;8.80;99.90;;;;;;5058496;28;20612;-51
2021/11/17 15:25:31;;;;;;;5.83;4.53;;;8.80;99.90;;;;;;5058815;28;20429;-54
2021/11/17 15:28:13;;;;;;;8.40;4.90;;;8.80;99.90;;;;;;5054716;28;20183;-49
2021/11/17 15:30:44;;;;;;;5.80;4.20;;;8.80;99.90;;;;;;5052618;28;20427;-51
2021/11/17 15:33:10;;;;;;;6.57;4.90;;;8.70;99.90;;;;;;5060364;28;20462;-50
2021/11/17 15:35:37;;;;;;;5.70;4.47;;;8.70;99.90;;;;;;5059277;28;20520;-56
2021/11/17 15:38:05;;;;;;;6.43;4.20;;;8.70;99.90;;;;;;5055108;28;20445;-52
2021/11/17 15:40:35;;;;;;;7.60;5.63;;;8.70;99.90;;;;;;5056655;28;20425;-55
2021/11/17 15:43:03;;;;;;;8.20;5.13;;;8.60;99.90;;;;;;5037026;28;20812;-51
2021/11/17 15:45:29;;;;;;;6.47;4.60;;;8.60;99.90;;;;;;5057665;28;20799;-52
2021/11/17 15:47:54;;;;;;;5.40;4.23;;;8.60;99.90;;;;;;5054557;28;20414;-52
2021/11/17 15:50:25;;;;;;;10.07;5.57;;;8.70;99.90;;;;;;5056731;28;20322;-56
2021/11/17 15:52:51;;;;;;;7.00;4.80;;;8.60;99.90;;;;;;5054080;28;20204;-53
2021/11/17 15:55:17;;;;;;;7.50;5.17;;;8.50;99.90;;;;;;5058620;28;20452;-53
2021/11/17 15:57:43;;;;;;;9.33;5.60;;;8.60;99.90;;;;;;5058171;28;20172;-52
2021/11/17 16:00:13;;;;;;;9.13;6.00;;;8.60;99.90;;;;;;5055709;28;20457;-53
2021/11/17 16:02:39;;;;;;;8.20;6.23;;;8.70;99.90;;;;;;5052446;28;20470;-53